Latest Weather Observations for Mudgee

IDN60801

Issued at 7:02 pm EST Friday 31 July 2015 (issued every 30 minutes, with the page automatically refreshed every 10 minutes)

About weather observations | Map of weather stations | Latest weather observations for NSW | Other Formats
Station Details ID: 062101 Name: MUDGEE AIRPORT AWS Lat: -32.56 Lon: 149.61 Height: 471.0 m
Data from the previous 72 hours. | See also: Recent months at Mudgee
Date/Time
EST
Temp
°C
App
Temp
°C
Dew
Point
Rel
Hum
%
Delta-T
°C
Wind Press
QNH
hPa
Press
MSL
hPa
Rain
since 9 am
mm
Dir
 
Spd
km/h
Gust
km/h
Spd
kts
Gust
kts
31/07:00pm 6.8 3.2 2.7 75 1.7 NNE 11 17 6 9 1021.9 1022.5 0.0
31/06:30pm 10.9 9.1 3.5 60 3.3 NNW 2 7 1 4 1021.5 1022.2 0.0
31/06:00pm 11.3 8.2 3.6 59 3.5 N 9 9 5 5 1021.4 1022.1 0.0
31/05:30pm 11.7 7.8 3.2 56 3.8 NNW 13 15 7 8 1021.3 1022.0 0.0
31/05:00pm 13.3 9.3 3.1 50 4.6 NNW 13 17 7 9 1021.0 1021.7 0.0
31/04:30pm 15.3 11.3 3.1 44 5.7 NW 13 17 7 9 1020.9 1021.6 0.0
31/04:00pm 15.6 11.6 3.1 43 5.8 NW 13 17 7 9 1020.9 1021.6 0.0
31/03:30pm 15.7 11.4 3.2 43 5.8 NNW 15 20 8 11 1021.0 1021.7 0.0
31/03:00pm 15.7 10.6 2.8 42 6.0 NNW 19 24 10 13 1020.8 1021.5 0.0
31/02:30pm 15.9 11.2 3.0 42 6.0 NNW 17 24 9 13 1021.0 1021.7 0.0
31/02:00pm 15.5 10.8 3.3 44 5.7 NNW 17 24 9 13 1021.2 1021.9 0.0
31/01:30pm 15.1 10.5 3.6 46 5.4 NNW 17 26 9 14 1021.8 1022.4 0.0
31/01:00pm 14.7 11.0 4.7 51 4.8 NW 13 20 7 11 1022.0 1022.7 0.0
31/12:30pm 14.4 11.8 6.0 57 4.1 N 9 15 5 8 1022.2 1022.9 0.0
31/12:00pm 13.6 11.3 5.5 58 3.9 NNW 7 15 4 8 1022.7 1023.4 0.0
31/11:30am 12.8 9.5 4.8 58 3.8 WNW 11 17 6 9 1023.1 1023.8 0.0
31/11:00am 12.1 8.9 5.0 62 3.3 N 11 17 6 9 1023.3 1024.0 0.0
31/10:30am 11.6 8.8 5.0 64 3.1 NW 9 15 5 8 1023.4 1024.1 0.0
31/10:00am 11.1 9.5 6.3 72 2.3 NNE 4 9 2 5 1023.3 1024.0 0.0
31/09:30am 10.0 7.4 6.3 78 1.8 NNE 9 13 5 7 1023.1 1023.8 0.0
31/09:00am 8.1 6.7 7.2 94 0.4 NE 4 7 2 4 1023.2 1023.9 0.0
31/08:30am 5.7 3.5 5.4 98 0.1 ENE 6 6 3 3 1022.9 1023.6 0.0
31/08:00am 3.5 2.0 3.2 98 0.1 CALM 0 0 0 0 1022.6 1023.3 0.0
31/07:30am 1.7 -1.2 1.4 98 0.1 NNE 6 7 3 4 1022.2 1022.9 0.0
31/07:00am 0.8 -1.1 0.5 98 0.1 CALM 0 0 0 0 1021.8 1022.4 0.0
31/06:30am 0.9 -2.3 0.6 98 0.1 N 7 11 4 6 1021.4 1022.1 0.0
31/06:00am 1.5 -3.2 1.2 98 0.1 NNE 15 17 8 9 1021.2 1021.9 0.0
31/05:30am 2.5 -0.3 2.2 98 0.1 ENE 6 9 3 5 1021.3 1022.0 0.0
31/05:00am 1.4 -2.1 1.1 98 0.1 NNE 9 13 5 7 1021.1 1021.8 0.0
31/04:30am 1.7 -2.2 1.4 98 0.1 NNE 11 15 6 8 1020.8 1021.5 0.0
31/04:00am 1.6 -3.4 1.3 98 0.1 NNE 17 19 9 10 1021.0 1021.7 0.0
31/03:30am 1.5 -2.8 1.2 98 0.1 NNE 13 15 7 8 1021.3 1022.0 0.0
31/03:00am 1.8 -1.7 1.5 98 0.1 N 9 11 5 6 1021.5 1022.2 0.0
31/02:30am 1.8 -1.7 1.5 98 0.1 NNE 9 11 5 6 1021.7 1022.3 0.0
31/02:00am 1.9 -1.9 1.6 98 0.1 NNE 11 13 6 7 1021.9 1022.5 0.0
31/01:30am 2.4 -1.7 2.1 98 0.1 NNE 13 13 7 7 1022.2 1022.9 0.0
31/01:00am 3.2 0.0 2.9 98 0.1 N 9 11 5 6 1022.2 1022.9 0.0
31/12:30am 4.7 1.8 4.4 98 0.1 N 9 9 5 5 1022.2 1022.9 0.0
31/12:00am 2.5 -1.6 2.2 98 0.1 NNE 13 15 7 8 1022.3 1023.0 0.0
 
Date/Time
EST
Temp
°C
App
Temp
°C
Dew
Point
Rel
Hum
%
Delta-T
°C
Wind Press
QNH
hPa
Press
MSL
hPa
Rain
since 9 am
mm
Dir
 
Spd
km/h
Gust
km/h
Spd
kts
Gust
kts
30/11:30pm 2.9 -1.1 2.6 98 0.1 NNE 13 13 7 7 1022.4 1023.1 0.0
30/11:00pm 4.6 1.6 4.3 98 0.1 NNE 9 11 5 6 1022.7 1023.4 0.0
30/10:30pm 4.2 1.0 3.3 94 0.4 N 9 11 5 6 1022.8 1023.5 0.0
30/10:00pm 5.9 3.7 5.2 95 0.3 NNE 6 7 3 4 1023.0 1023.7 0.0
30/09:30pm 6.4 4.3 5.8 96 0.3 N 6 6 3 3 1022.8 1023.5 0.0
30/09:00pm 6.4 3.9 4.9 90 0.7 N 7 7 4 4 1022.8 1023.5 0.0
30/08:30pm 7.5 4.8 5.5 87 0.9 N 9 9 5 5 1022.8 1023.5 0.0
30/08:00pm 7.1 4.3 5.1 87 0.9 N 9 13 5 7 1023.1 1023.8 0.0
30/07:30pm 7.2 4.2 4.0 80 1.4 NNW 9 11 5 6 1022.9 1023.6 0.0
30/07:00pm 8.6 5.2 4.2 74 2.0 NW 11 13 6 7 1022.9 1023.6 0.0
30/06:30pm 9.2 5.9 4.6 73 2.1 NW 11 13 6 7 1022.7 1023.4 0.0
30/06:00pm 9.5 5.8 4.5 71 2.3 NW 13 15 7 8 1022.5 1023.2 0.0
30/05:30pm 10.2 6.9 4.4 67 2.7 NNW 11 15 6 8 1022.3 1023.0 0.0
30/05:00pm 12.7 8.8 5.4 61 3.5 NW 15 19 8 10 1022.3 1023.0 0.0
30/04:30pm 13.0 8.3 5.2 59 3.7 WNW 19 28 10 15 1022.7 1023.4 0.0
30/04:00pm 14.0 9.4 5.6 57 4.1 WNW 19 26 10 14 1023.0 1023.7 0.0
30/03:30pm 14.6 9.0 5.4 54 4.5 WNW 24 30 13 16 1023.3 1024.0 0.0
30/03:00pm 14.5 9.5 4.5 51 4.7 NW 20 28 11 15 1023.4 1024.1 0.0
30/02:30pm 14.5 8.8 4.8 52 4.6 NW 24 33 13 18 1024.1 1024.8 0.0
30/02:00pm 14.0 7.8 4.3 52 4.6 WNW 26 35 14 19 1024.2 1024.9 0.0
30/01:30pm 13.8 8.5 4.9 55 4.2 NW 22 28 12 15 1024.7 1025.4 0.0
30/01:00pm 14.2 8.2 5.3 55 4.3 NW 26 39 14 21 1025.2 1025.9 0.0
30/12:30pm 13.5 8.4 4.1 53 4.4 NW 20 32 11 17 1025.5 1026.2 0.0
30/12:00pm 12.7 8.4 5.4 61 3.5 WNW 17 24 9 13 1026.2 1026.9 0.0
30/11:30am 12.4 8.2 5.8 64 3.2 NNW 17 24 9 13 1026.6 1027.3 0.0
30/11:00am 11.1 7.7 6.0 71 2.4 NNW 13 20 7 11 1027.2 1027.9 0.0
30/10:30am 9.2 8.5 6.8 85 1.2 CALM 0 6 0 3 1027.8 1028.6 0.0
30/10:00am 6.7 5.9 6.3 97 0.2 CALM 0 0 0 0 1028.1 1028.9 0.0
30/09:30am 5.2 4.0 4.8 97 0.2 CALM 0 6 0 3 1028.2 1029.0 0.0
30/09:00am 3.8 2.4 3.5 98 0.1 CALM 0 0 0 0 1028.5 1029.2 0.0
30/08:30am 1.7 -0.1 1.4 98 0.1 CALM 0 0 0 0 1028.5 1029.2 0.0
30/08:00am 0.8 -1.1 0.5 98 0.1 CALM 0 0 0 0 1028.5 1029.2 0.0
30/07:55am 0.8 -1.1 0.5 98 0.1 CALM 0 0 0 0 1028.5 1029.2 0.0
30/07:35am -0.1 -2.1 -0.4 98 0.1 CALM 0 0 0 0 1028.4 1029.1 0.0
30/07:30am -0.4 -2.5 -0.7 98 0.1 CALM 0 6 0 3 1028.4 1029.1 0.0
30/07:00am -0.9 -4.2 -1.2 98 0.1 NNE 6 7 3 4 1027.9 1028.7 0.0
30/06:30am -0.6 -3.1 -0.9 98 0.1 ENE 2 6 1 3 1027.7 1028.5 0.0
30/06:00am -0.4 -2.5 -0.7 98 0.1 CALM 0 0 0 0 1027.4 1028.2 0.0
30/05:30am -0.3 -2.4 -0.6 98 0.1 CALM 0 0 0 0 1027.5 1028.3 0.0
30/05:00am 0.5 -2.6 0.2 98 0.1 NNE 6 7 3 4 1027.2 1027.9 0.0
30/04:30am 0.3 -1.7 0.0 98 0.1 CALM 0 0 0 0 1027.6 1028.4 0.0
30/04:00am 1.0 -1.6 0.7 98 0.1 ESE 4 7 2 4 1027.6 1028.4 0.0
30/03:30am 0.4 -1.6 0.1 98 0.1 CALM 0 6 0 3 1027.9 1028.7 0.0
30/03:00am 1.3 -1.3 1.0 98 0.1 NNE 4 9 2 5 1027.9 1028.7 0.0
30/02:30am 1.8 0.0 1.5 98 0.1 CALM 0 0 0 0 1028.2 1029.0 0.0
30/02:00am 2.1 0.4 1.8 98 0.1 CALM 0 0 0 0 1028.7 1029.4 0.0
30/01:30am 1.7 -1.2 1.3 97 0.2 N 6 7 3 4 1028.6 1029.3 0.0
30/01:00am 3.3 1.8 3.0 98 0.1 CALM 0 0 0 0 1029.0 1029.7 0.0
30/12:30am 2.8 0.4 2.4 97 0.2 N 4 7 2 4 1029.5 1030.3 0.0
30/12:00am 3.6 1.8 3.2 97 0.2 NE 2 7 1 4 1029.8 1030.6 0.0
 
Date/Time
EST
Temp
°C
App
Temp
°C
Dew
Point
Rel
Hum
%
Delta-T
°C
Wind Press
QNH
hPa
Press
MSL
hPa
Rain
since 9 am
mm
Dir
 
Spd
km/h
Gust
km/h
Spd
kts
Gust
kts
29/11:30pm 3.8 1.6 3.4 97 0.2 NE 4 7 2 4 1029.7 1030.5 0.0
29/11:00pm 4.1 2.3 3.5 96 0.3 S 2 7 1 4 1029.8 1030.6 0.0
29/10:30pm 4.0 2.6 3.3 95 0.3 CALM 0 0 0 0 1030.0 1030.8 0.0
29/10:00pm 4.2 1.5 3.5 95 0.3 NE 7 11 4 6 1030.4 1031.2 0.0
29/09:30pm 4.7 3.3 3.5 92 0.5 CALM 0 0 0 0 1030.8 1031.5 0.0
29/09:00pm 4.7 1.9 3.4 91 0.5 NE 7 9 4 5 1030.5 1031.3 0.0
29/08:30pm 5.0 3.2 3.3 89 0.7 SSW 2 7 1 4 1030.7 1031.4 0.0
29/08:00pm 5.5 2.4 3.5 87 0.9 ENE 9 15 5 8 1030.1 1030.9 0.0
29/07:30pm 5.6 2.9 3.6 87 0.9 ENE 7 9 4 5 1030.1 1030.9 0.0
29/07:00pm 7.3 5.7 4.3 81 1.3 NE 2 6 1 3 1030.4 1031.2 0.0
29/06:30pm 6.7 3.2 3.5 80 1.4 NE 11 13 6 7 1029.8 1030.6 0.0
29/06:00pm 9.3 7.8 3.1 65 2.7 CALM 0 2 0 1 1029.8 1030.6 0.0
29/05:30pm 10.7 7.9 3.3 60 3.3 W 7 9 4 5 1030.1 1030.9 0.0
29/05:00pm 12.2 9.1 3.7 56 3.9 W 9 9 5 5 1029.7 1030.5 0.0
29/04:30pm 14.1 11.3 3.3 48 5.0 WNW 7 11 4 6 1029.4 1030.2 0.0
29/04:00pm 14.1 11.4 3.8 50 4.8 N 7 15 4 8 1029.0 1029.7 0.0
29/03:30pm 14.8 12.0 3.0 45 5.4 NE 7 11 4 6 1029.3 1030.1 0.0
29/03:00pm 14.5 10.9 3.0 46 5.3 NW 11 19 6 10 1029.8 1030.6 0.0
29/02:30pm 14.6 11.0 3.1 46 5.3 NNE 11 15 6 8 1030.1 1030.9 0.0
29/02:00pm 14.7 11.8 4.7 51 4.7 NNW 9 15 5 8 1030.4 1031.2 0.0
29/01:30pm 14.4 11.3 3.8 49 5.0 N 9 17 5 9 1030.9 1031.6 0.0
29/01:00pm 13.7 10.1 5.1 56 4.1 ENE 13 24 7 13 1031.2 1032.0 0.0
29/12:30pm 13.5 9.9 4.9 56 4.1 NE 13 20 7 11 1031.7 1032.5 0.0
29/12:00pm 13.1 8.1 4.8 57 3.9 NE 20 28 11 15 1032.4 1033.2 0.0
29/11:30am 12.8 8.4 4.5 57 3.9 NE 17 20 9 11 1033.0 1033.8 0.0
29/11:00am 11.0 8.7 5.5 69 2.6 SE 7 9 4 5 1033.5 1034.3 0.0
29/10:30am 9.7 6.9 5.1 73 2.1 S 9 13 5 7 1034.1 1034.9 0.0
29/10:00am 7.6 4.7 4.7 82 1.3 SW 9 11 5 6 1034.4 1035.2 0.0
29/09:30am 6.2 2.7 3.4 82 1.2 S 11 13 6 7 1034.5 1035.4 0.0
29/09:00am 3.9 0.6 2.6 91 0.5 SSE 9 13 5 7 1034.7 1035.6 0.0
29/08:30am 2.1 0.4 1.7 97 0.2 CALM 0 6 0 3 1034.6 1035.5 0.0
29/08:00am 0.6 -1.7 0.3 98 0.1 SSE 2 7 1 4 1034.6 1035.5 0.0
29/07:30am -0.8 -2.9 -1.1 98 0.1 CALM 0 0 0 0 1034.4 1035.2 0.0
29/07:00am -1.9 -4.2 -2.2 98 0.0 CALM 0 0 0 0 1034.0 1034.8 0.0
29/06:30am -1.6 -3.8 -1.9 98 0.0 CALM 0 0 0 0 1033.8 1034.6 0.0
29/06:00am -1.9 -4.2 -2.3 97 0.1 CALM 0 0 0 0 1033.4 1034.2 0.0
29/05:30am -1.3 -3.5 -1.6 98 0.0 CALM 0 0 0 0 1033.1 1033.9 0.0
29/05:00am -1.7 -4.7 -2.1 97 0.1 NNE 4 6 2 3 1033.1 1033.9 0.0
29/04:30am -0.5 -2.6 -0.8 98 0.1 CALM 0 0 0 0 1032.9 1033.7 0.0
29/04:00am -0.7 -3.2 -1.0 98 0.1 ENE 2 6 1 3 1032.7 1033.6 0.0
29/03:30am -1.5 -3.7 -1.9 97 0.1 CALM 0 0 0 0 1032.7 1033.6 0.0
29/03:00am -0.5 -2.6 -0.9 97 0.1 CALM 0 0 0 0 1032.7 1033.6 0.0
29/02:30am -0.9 -4.4 -1.3 97 0.1 NNE 7 9 4 5 1033.0 1033.8 0.0
29/02:00am -0.1 -2.1 -0.4 98 0.1 CALM 0 0 0 0 1033.1 1033.9 0.0
29/01:30am -0.4 -2.5 -0.8 97 0.1 CALM 0 0 0 0 1033.3 1034.1 0.0
29/01:00am 0.4 -3.3 0.0 97 0.1 NE 9 13 5 7 1033.2 1034.0 0.0
29/12:30am -0.1 -2.2 -0.5 97 0.1 CALM 0 0 0 0 1033.1 1033.9 0.0
29/12:00am 1.2 -0.7 0.8 97 0.2 CALM 0 0 0 0 1033.0 1033.8 0.0
 
Date/Time
EST
Temp
°C
App
Temp
°C
Dew
Point
Rel
Hum
%
Delta-T
°C
Wind Press
QNH
hPa
Press
MSL
hPa
Rain
since 9 am
mm
Dir
 
Spd
km/h
Gust
km/h
Spd
kts
Gust
kts
28/11:30pm 1.3 -0.5 0.9 97 0.2 CALM 0 0 0 0 1033.0 1033.8 0.0
28/11:00pm 1.2 -2.4 0.8 97 0.2 NE 9 11 5 6 1033.0 1033.8 0.0
28/10:30pm 2.1 -0.8 1.7 97 0.2 ESE 6 7 3 4 1033.0 1033.8 0.0
28/10:00pm 1.9 -0.2 1.5 97 0.2 SW 2 7 1 4 1032.9 1033.7 0.0
28/09:30pm 1.7 -1.8 1.1 96 0.2 NE 9 13 5 7 1032.9 1033.7 0.0
28/09:00pm 2.5 -0.4 1.6 94 0.4 NE 6 11 3 6 1033.0 1033.8 0.0
28/08:30pm 3.8 1.5 2.5 91 0.5 SE 4 7 2 4 1032.7 1033.6 0.0
28/08:00pm 3.4 -0.4 1.9 90 0.6 NNE 11 11 6 6 1032.5 1033.3 0.0
28/07:30pm 4.4 2.5 2.9 90 0.6 NNE 2 9 1 5 1032.3 1033.1 0.0

Other Formats:

Comma delimited format used in spreadsheet applications
http://www.bom.gov.au/fwo/IDN60801/IDN60801.94727.axf

JavaScript Object Notation format (JSON) in row-major order
http://www.bom.gov.au/fwo/IDN60801/IDN60801.94727.json